Time;durP1;ratioP1;P1;durP2;ratioP2;P2;SDS_P1;SDS_P2;PMS_P1;PMS_P2;Temp;Humidity;BMP_temperature;BMP_pressure;BME280_temperature;BME280_humidity;BME280_pressure;Samples;Min_cycle;Max_cycle;Signal;HPM_P1;HPM_P2
2021/08/28 00:00:10;;;;;;;10.27;4.60;;;;;;;;;;5075010;28;20387;-36
2021/08/28 00:02:35;;;;;;;7.43;5.28;;;;;;;;;;5074781;28;20028;-36
2021/08/28 00:05:00;;;;;;;11.57;5.05;;;;;;;;;;5073836;28;20137;-37
2021/08/28 00:07:26;;;;;;;5.32;3.78;;;;;;;;;;5075856;28;20515;-36
2021/08/28 00:09:51;;;;;;;8.82;4.60;;;;;;;;;;5075367;28;20035;-36
2021/08/28 00:12:16;;;;;;;5.30;4.10;;;;;;;;;;5072723;28;20024;-36
2021/08/28 00:14:42;;;;;;;5.65;3.25;;;;;;;;;;5072173;28;20043;-41
2021/08/28 00:17:07;;;;;;;5.20;3.15;;;;;;;;;;5073983;28;20033;-36
2021/08/28 00:19:33;;;;;;;10.65;5.65;;;;;;;;;;5075538;28;20024;-37
2021/08/28 00:22:01;;;;;;;6.35;3.47;;;;;;;;;;5076291;28;20016;-36
2021/08/28 00:24:26;;;;;;;7.50;3.85;;;;;;;;;;5076569;28;20024;-36
2021/08/28 00:26:52;;;;;;;8.88;5.10;;;;;;;;;;5078627;28;20016;-37
2021/08/28 00:29:17;;;;;;;17.65;4.47;;;;;;;;;;5077126;28;20034;-37
2021/08/28 00:31:45;;;;;;;12.10;5.03;;;;;;;;;;5072135;28;20032;-37
2021/08/28 00:34:11;;;;;;;11.38;3.90;;;;;;;;;;5074634;28;20040;-37
2021/08/28 00:36:36;;;;;;;12.65;4.95;;;;;;;;;;5071106;28;20545;-37
2021/08/28 00:39:01;;;;;;;6.20;4.55;;;;;;;;;;5071324;28;20035;-36
2021/08/28 00:41:27;;;;;;;5.65;4.28;;;;;;;;;;5071692;28;20123;-36
2021/08/28 00:43:52;;;;;;;9.73;4.70;;;;;;;;;;5066592;28;20471;-36
2021/08/28 00:46:18;;;;;;;7.45;4.25;;;;;;;;;;5072276;28;20028;-36
2021/08/28 00:48:43;;;;;;;4.50;3.40;;;;;;;;;;5072409;28;20029;-36
2021/08/28 00:51:09;;;;;;;10.13;4.30;;;;;;;;;;5075602;28;20063;-36
2021/08/28 00:53:34;;;;;;;10.52;3.85;;;;;;;;;;5074807;28;20063;-37
2021/08/28 00:55:59;;;;;;;11.82;4.78;;;;;;;;;;5073527;28;20043;-37
2021/08/28 00:58:25;;;;;;;14.40;5.43;;;;;;;;;;5074080;28;20391;-36
2021/08/28 01:01:01;;;;;;;7.43;5.20;;;;;;;;;;5070817;28;20730;-37
2021/08/28 01:03:28;;;;;;;13.30;3.85;;;;;;;;;;5071735;28;20099;-36
2021/08/28 01:06:05;;;;;;;7.93;4.40;;;;;;;;;;5068573;28;20045;-36
2021/08/28 01:08:34;;;;;;;4.13;3.13;;;;;;;;;;5070198;28;20032;-36
2021/08/28 01:11:17;;;;;;;20.63;4.85;;;;;;;;;;5067092;28;20020;-36
2021/08/28 01:13:45;;;;;;;13.40;4.55;;;;;;;;;;5064206;28;20040;-36
2021/08/28 01:16:11;;;;;;;12.85;3.97;;;;;;;;;;5074569;28;20043;-37
2021/08/28 01:18:38;;;;;;;19.83;4.10;;;;;;;;;;5071684;28;20020;-36
2021/08/28 01:21:20;;;;;;;4.85;2.78;;;;;;;;;;5073172;28;20031;-36
2021/08/28 01:23:47;;;;;;;7.78;4.55;;;;;;;;;;5068763;28;20021;-36
2021/08/28 01:26:14;;;;;;;3.55;3.22;;;;;;;;;;5072815;28;20531;-37
2021/08/28 01:28:44;;;;;;;13.90;3.47;;;;;;;;;;5070979;28;20602;-36
2021/08/28 01:31:10;;;;;;;7.53;4.10;;;;;;;;;;5074102;28;20039;-37
2021/08/28 01:33:36;;;;;;;5.97;3.25;;;;;;;;;;5074712;28;20056;-37
2021/08/28 01:36:02;;;;;;;11.13;5.90;;;;;;;;;;5074343;28;20514;-36
2021/08/28 01:38:27;;;;;;;4.78;4.22;;;;;;;;;;5070931;28;20020;-36
2021/08/28 01:40:53;;;;;;;7.20;4.78;;;;;;;;;;5070465;28;20074;-37
2021/08/28 01:43:19;;;;;;;5.30;4.25;;;;;;;;;;5071426;28;20020;-36
2021/08/28 01:45:44;;;;;;;15.13;4.57;;;;;;;;;;5075262;28;20052;-37
2021/08/28 01:48:12;;;;;;;4.63;3.70;;;;;;;;;;5073178;28;20028;-36
2021/08/28 01:50:37;;;;;;;5.32;3.92;;;;;;;;;;5071247;28;20024;-36
2021/08/28 01:53:03;;;;;;;7.45;3.83;;;;;;;;;;5069220;28;20564;-36
2021/08/28 01:55:28;;;;;;;7.95;4.38;;;;;;;;;;5072791;28;20134;-36
2021/08/28 01:57:54;;;;;;;9.07;5.35;;;;;;;;;;5069295;28;20052;-36
2021/08/28 02:00:19;;;;;;;9.73;4.32;;;;;;;;;;5068740;28;20446;-36
2021/08/28 02:02:44;;;;;;;7.22;3.83;;;;;;;;;;5069023;28;20060;-36
2021/08/28 02:05:11;;;;;;;13.98;5.47;;;;;;;;;;5069600;28;20412;-36
2021/08/28 02:07:47;;;;;;;5.20;3.67;;;;;;;;;;5074293;28;20021;-36
2021/08/28 02:10:15;;;;;;;6.88;4.43;;;;;;;;;;5071737;28;20115;-36
2021/08/28 02:12:42;;;;;;;9.63;5.47;;;;;;;;;;5071235;28;20040;-37
2021/08/28 02:15:21;;;;;;;4.72;3.95;;;;;;;;;;5072942;28;20023;-37
2021/08/28 02:18:04;;;;;;;3.95;3.53;;;;;;;;;;5073056;28;20134;-36
2021/08/28 02:20:33;;;;;;;9.73;4.72;;;;;;;;;;5078747;28;20075;-36
2021/08/28 02:23:02;;;;;;;5.45;4.95;;;;;;;;;;5069820;28;20081;-36
2021/08/28 02:25:30;;;;;;;10.43;6.07;;;;;;;;;;5074357;28;20599;-37
2021/08/28 02:28:06;;;;;;;10.85;6.95;;;;;;;;;;5072602;28;20081;-36
2021/08/28 02:30:32;;;;;;;9.50;4.47;;;;;;;;;;5071219;28;20053;-36
2021/08/28 02:32:59;;;;;;;9.68;4.95;;;;;;;;;;5069709;28;20024;-36
2021/08/28 02:35:26;;;;;;;6.50;4.53;;;;;;;;;;5074255;28;20104;-36
2021/08/28 02:37:51;;;;;;;6.20;4.55;;;;;;;;;;5074968;28;20028;-36
2021/08/28 02:40:19;;;;;;;5.25;4.57;;;;;;;;;;5072029;28;20027;-36
2021/08/28 02:42:45;;;;;;;7.28;4.78;;;;;;;;;;5073538;28;20454;-36
2021/08/28 02:45:14;;;;;;;15.65;6.15;;;;;;;;;;5075304;28;20016;-36
2021/08/28 02:47:40;;;;;;;10.00;5.22;;;;;;;;;;5074639;28;20047;-36
2021/08/28 02:50:05;;;;;;;5.25;4.70;;;;;;;;;;5076047;28;20024;-37
2021/08/28 02:52:31;;;;;;;8.35;5.72;;;;;;;;;;5072968;28;20334;-37
2021/08/28 02:54:58;;;;;;;14.30;5.55;;;;;;;;;;5073094;28;20470;-36
2021/08/28 02:57:24;;;;;;;12.23;6.15;;;;;;;;;;5067752;28;20077;-36
2021/08/28 02:59:50;;;;;;;10.25;4.85;;;;;;;;;;5074886;28;20016;-36
2021/08/28 03:02:16;;;;;;;6.85;4.72;;;;;;;;;;5071142;28;20013;-36
2021/08/28 03:04:41;;;;;;;8.60;4.03;;;;;;;;;;5074128;28;20060;-36
2021/08/28 03:07:07;;;;;;;9.13;5.53;;;;;;;;;;5072196;28;20848;-36
2021/08/28 03:09:33;;;;;;;9.15;5.28;;;;;;;;;;5087899;28;20035;-36
2021/08/28 03:11:58;;;;;;;4.75;4.00;;;;;;;;;;5072207;28;20005;-37
2021/08/28 03:14:24;;;;;;;15.98;5.40;;;;;;;;;;5074150;28;20115;-36
2021/08/28 03:16:51;;;;;;;7.00;4.25;;;;;;;;;;5071872;28;20016;-36
2021/08/28 03:19:19;;;;;;;12.32;6.03;;;;;;;;;;5072252;28;20519;-36
2021/08/28 03:21:45;;;;;;;7.38;4.95;;;;;;;;;;5074921;28;20159;-37
2021/08/28 03:24:11;;;;;;;4.72;3.42;;;;;;;;;;5074913;28;20483;-36
2021/08/28 03:26:36;;;;;;;14.75;6.78;;;;;;;;;;5070712;28;20610;-37
2021/08/28 03:29:02;;;;;;;14.07;5.20;;;;;;;;;;5075276;28;20031;-36
2021/08/28 03:31:28;;;;;;;21.38;6.13;;;;;;;;;;5071559;28;20032;-37
2021/08/28 03:33:54;;;;;;;9.13;6.72;;;;;;;;;;5076803;28;20016;-36
2021/08/28 03:36:20;;;;;;;10.80;5.00;;;;;;;;;;5073331;28;20241;-36
2021/08/28 03:38:46;;;;;;;8.20;6.13;;;;;;;;;;5078105;28;20552;-36
2021/08/28 03:41:11;;;;;;;10.35;6.15;;;;;;;;;;5073079;28;20488;-36
2021/08/28 03:43:37;;;;;;;20.52;5.45;;;;;;;;;;5072816;28;20130;-36
2021/08/28 03:46:04;;;;;;;6.70;5.65;;;;;;;;;;5073343;28;20110;-36
2021/08/28 03:48:29;;;;;;;7.93;5.22;;;;;;;;;;5075343;28;20019;-36
2021/08/28 03:50:56;;;;;;;27.45;6.20;;;;;;;;;;5073328;28;20112;-36
2021/08/28 03:53:22;;;;;;;6.95;6.28;;;;;;;;;;5072236;28;20092;-36
2021/08/28 03:55:47;;;;;;;15.93;7.10;;;;;;;;;;5074270;28;20112;-36
2021/08/28 03:58:12;;;;;;;14.88;5.97;;;;;;;;;;5075370;28;20024;-36
2021/08/28 04:00:38;;;;;;;8.00;4.78;;;;;;;;;;5069743;28;20040;-36
2021/08/28 04:03:03;;;;;;;11.60;6.35;;;;;;;;;;5069768;28;20035;-37
2021/08/28 04:05:28;;;;;;;9.73;7.07;;;;;;;;;;5074402;28;20040;-36
2021/08/28 04:07:53;;;;;;;10.85;4.95;;;;;;;;;;5077901;28;20029;-36
2021/08/28 04:10:19;;;;;;;7.22;5.32;;;;;;;;;;5078812;28;20155;-36
2021/08/28 04:12:44;;;;;;;20.42;6.25;;;;;;;;;;5075610;28;20455;-37
2021/08/28 04:15:10;;;;;;;10.23;5.43;;;;;;;;;;5073025;28;20024;-36
2021/08/28 04:17:36;;;;;;;6.85;5.88;;;;;;;;;;5078390;28;20496;-36
2021/08/28 04:20:02;;;;;;;9.57;5.43;;;;;;;;;;5073510;28;20043;-36
2021/08/28 04:22:27;;;;;;;8.32;5.55;;;;;;;;;;5082932;28;20011;-36
2021/08/28 04:24:52;;;;;;;9.38;4.00;;;;;;;;;;5077486;28;20061;-36
2021/08/28 04:27:18;;;;;;;7.82;5.85;;;;;;;;;;5075442;28;20028;-41
2021/08/28 04:29:43;;;;;;;11.63;4.90;;;;;;;;;;5076000;28;20017;-36
2021/08/28 04:32:08;;;;;;;7.65;5.13;;;;;;;;;;5077787;28;20623;-36
2021/08/28 04:34:33;;;;;;;9.60;5.07;;;;;;;;;;5078659;28;20031;-37
2021/08/28 04:36:59;;;;;;;12.52;5.95;;;;;;;;;;5073537;28;20051;-36
2021/08/28 04:39:24;;;;;;;7.43;5.28;;;;;;;;;;5076090;28;20024;-36
2021/08/28 04:41:49;;;;;;;7.93;5.10;;;;;;;;;;5079017;28;20025;-36
2021/08/28 04:44:15;;;;;;;12.02;7.50;;;;;;;;;;5073086;28;20024;-36
2021/08/28 04:46:40;;;;;;;15.02;12.45;;;;;;;;;;5075099;28;20024;-37
2021/08/28 04:49:05;;;;;;;14.50;11.10;;;;;;;;;;5074939;28;20391;-36
2021/08/28 04:51:30;;;;;;;14.98;7.47;;;;;;;;;;5080081;28;20032;-37
2021/08/28 04:53:56;;;;;;;8.38;6.13;;;;;;;;;;5075171;28;20028;-36
2021/08/28 04:56:21;;;;;;;8.38;6.75;;;;;;;;;;5073249;28;20051;-37
2021/08/28 04:58:46;;;;;;;12.13;7.82;;;;;;;;;;5074901;28;20017;-36
2021/08/28 05:01:12;;;;;;;10.45;6.68;;;;;;;;;;5072126;28;20036;-37
2021/08/28 05:03:37;;;;;;;13.20;6.97;;;;;;;;;;5074120;28;20031;-36
2021/08/28 05:06:03;;;;;;;10.07;8.13;;;;;;;;;;5069187;28;20052;-37
2021/08/28 05:08:28;;;;;;;9.55;8.52;;;;;;;;;;5077961;28;20028;-36
2021/08/28 05:10:53;;;;;;;23.38;13.45;;;;;;;;;;5075691;28;20027;-37
2021/08/28 05:13:18;;;;;;;7.47;6.55;;;;;;;;;;5072161;28;20011;-36
2021/08/28 05:15:44;;;;;;;12.48;9.55;;;;;;;;;;5078797;28;20085;-36
2021/08/28 05:18:09;;;;;;;9.82;7.53;;;;;;;;;;5069315;28;20078;-36
2021/08/28 05:20:35;;;;;;;29.15;8.63;;;;;;;;;;5078379;28;20468;-36
2021/08/28 05:23:00;;;;;;;11.85;7.20;;;;;;;;;;5074758;28;20113;-36
2021/08/28 05:25:25;;;;;;;15.70;10.88;;;;;;;;;;5071204;28;20111;-37
2021/08/28 05:27:51;;;;;;;20.67;8.73;;;;;;;;;;5077185;28;20103;-37
2021/08/28 05:30:16;;;;;;;24.45;8.43;;;;;;;;;;5072631;28;20063;-37
2021/08/28 05:32:43;;;;;;;15.10;12.55;;;;;;;;;;5072290;28;20024;-36
2021/08/28 05:35:08;;;;;;;19.08;12.25;;;;;;;;;;5078696;28;20033;-36
2021/08/28 05:37:34;;;;;;;14.40;12.90;;;;;;;;;;5075815;28;20031;-36
2021/08/28 05:39:59;;;;;;;21.10;13.13;;;;;;;;;;5076532;28;20031;-36
2021/08/28 05:42:24;;;;;;;11.18;8.95;;;;;;;;;;5075825;28;20475;-38
2021/08/28 05:44:50;;;;;;;10.18;8.27;;;;;;;;;;5074459;28;20062;-38
2021/08/28 05:47:15;;;;;;;12.75;8.63;;;;;;;;;;5073739;28;20044;-38
2021/08/28 05:49:40;;;;;;;19.52;14.77;;;;;;;;;;5078387;28;20497;-38
2021/08/28 05:52:06;;;;;;;22.55;20.40;;;;;;;;;;5076354;28;20082;-39
2021/08/28 05:54:31;;;;;;;30.40;25.35;;;;;;;;;;5076257;28;20480;-38
2021/08/28 05:56:56;;;;;;;32.15;27.25;;;;;;;;;;5073259;28;20689;-38
2021/08/28 05:59:22;;;;;;;70.22;62.80;;;;;;;;;;5073806;28;20027;-38
2021/08/28 06:01:48;;;;;;;40.63;35.40;;;;;;;;;;5076891;28;20119;-38
2021/08/28 06:04:13;;;;;;;21.77;19.75;;;;;;;;;;5069575;28;20049;-38
2021/08/28 06:06:38;;;;;;;31.38;25.63;;;;;;;;;;5071146;28;20541;-38
2021/08/28 06:09:04;;;;;;;28.73;24.52;;;;;;;;;;5078509;28;20027;-38
2021/08/28 06:11:29;;;;;;;32.03;28.65;;;;;;;;;;5074867;28;20054;-38
2021/08/28 06:13:55;;;;;;;41.65;30.92;;;;;;;;;;5070437;28;20033;-38
2021/08/28 06:16:21;;;;;;;34.53;30.52;;;;;;;;;;5077754;28;20030;-38
2021/08/28 06:18:46;;;;;;;26.10;21.25;;;;;;;;;;5074351;28;20387;-38
2021/08/28 06:21:12;;;;;;;25.60;19.63;;;;;;;;;;5073815;28;20069;-38
2021/08/28 06:23:37;;;;;;;23.30;19.88;;;;;;;;;;5073981;28;20512;-38
2021/08/28 06:26:02;;;;;;;23.17;20.77;;;;;;;;;;5077751;28;20020;-38
2021/08/28 06:28:28;;;;;;;24.42;21.92;;;;;;;;;;5075764;28;20015;-37
2021/08/28 06:30:53;;;;;;;15.65;14.23;;;;;;;;;;5074079;28;20161;-37
2021/08/28 06:33:18;;;;;;;16.25;13.38;;;;;;;;;;5071367;28;20475;-36
2021/08/28 06:35:43;;;;;;;18.60;13.63;;;;;;;;;;5064794;28;20031;-36
2021/08/28 06:38:09;;;;;;;14.00;10.27;;;;;;;;;;5072568;28;20024;-37
2021/08/28 06:40:34;;;;;;;15.65;13.75;;;;;;;;;;5071456;28;20029;-37
2021/08/28 06:42:59;;;;;;;16.58;11.07;;;;;;;;;;5070320;28;20029;-37
2021/08/28 06:45:25;;;;;;;22.65;13.55;;;;;;;;;;5064491;28;20555;-37
2021/08/28 06:47:50;;;;;;;21.05;15.30;;;;;;;;;;5067192;28;20025;-36
2021/08/28 06:50:15;;;;;;;19.65;15.50;;;;;;;;;;5071665;28;20027;-37
2021/08/28 06:52:41;;;;;;;34.30;24.25;;;;;;;;;;5066125;28;20479;-37
2021/08/28 06:55:06;;;;;;;32.67;25.90;;;;;;;;;;5073057;28;20032;-36
2021/08/28 06:57:32;;;;;;;25.42;22.73;;;;;;;;;;5071160;28;20112;-37
2021/08/28 06:59:58;;;;;;;26.40;21.98;;;;;;;;;;5071202;28;20044;-36
2021/08/28 07:02:24;;;;;;;27.05;24.30;;;;;;;;;;5075747;28;20031;-38
2021/08/28 07:04:49;;;;;;;33.08;23.58;;;;;;;;;;5070143;28;20048;-38
2021/08/28 07:07:14;;;;;;;28.70;20.65;;;;;;;;;;5068791;28;20028;-44
2021/08/28 07:09:40;;;;;;;31.58;22.92;;;;;;;;;;5072695;28;20483;-38
2021/08/28 07:12:05;;;;;;;27.73;20.05;;;;;;;;;;5074158;28;20047;-37
2021/08/28 07:14:30;;;;;;;38.15;25.05;;;;;;;;;;5070388;28;20032;-38
2021/08/28 07:16:56;;;;;;;21.30;18.98;;;;;;;;;;5070392;28;20024;-37
2021/08/28 07:19:21;;;;;;;18.38;16.33;;;;;;;;;;5070295;28;20562;-38
2021/08/28 07:21:47;;;;;;;18.15;14.13;;;;;;;;;;5072329;28;20086;-38
2021/08/28 07:24:12;;;;;;;16.30;12.93;;;;;;;;;;5073354;28;20115;-38
2021/08/28 07:26:37;;;;;;;25.42;18.80;;;;;;;;;;5071831;28;20033;-38
2021/08/28 07:29:02;;;;;;;41.85;20.08;;;;;;;;;;5075503;28;20028;-38
2021/08/28 07:31:28;;;;;;;23.63;21.25;;;;;;;;;;5070994;28;20686;-38
2021/08/28 07:33:53;;;;;;;24.52;20.33;;;;;;;;;;5073895;28;20020;-38
2021/08/28 07:36:19;;;;;;;24.85;22.27;;;;;;;;;;5074696;28;20081;-38
2021/08/28 07:38:44;;;;;;;24.42;21.98;;;;;;;;;;5070098;28;20028;-38
2021/08/28 07:41:09;;;;;;;70.10;57.00;;;;;;;;;;5068161;28;20032;-38
2021/08/28 07:43:34;;;;;;;41.95;28.40;;;;;;;;;;5070391;28;20116;-38
2021/08/28 07:46:00;;;;;;;80.38;58.70;;;;;;;;;;5066437;28;20069;-38
2021/08/28 07:48:25;;;;;;;35.17;25.02;;;;;;;;;;5067693;28;20024;-38
2021/08/28 07:50:50;;;;;;;19.73;14.07;;;;;;;;;;5072804;28;20855;-38
2021/08/28 07:53:16;;;;;;;24.63;13.55;;;;;;;;;;5072446;28;20028;-38
2021/08/28 07:55:41;;;;;;;15.48;7.32;;;;;;;;;;5077754;28;20420;-38
2021/08/28 07:58:06;;;;;;;7.63;5.93;;;;;;;;;;5078005;28;20021;-38
2021/08/28 08:00:32;;;;;;;8.52;7.00;;;;;;;;;;5071885;28;20057;-38
2021/08/28 08:02:57;;;;;;;8.10;7.15;;;;;;;;;;5072995;28;20064;-38
2021/08/28 08:05:22;;;;;;;9.60;5.40;;;;;;;;;;5075346;28;20048;-37
2021/08/28 08:07:48;;;;;;;9.55;6.50;;;;;;;;;;5072751;28;20036;-38
2021/08/28 08:10:13;;;;;;;11.43;10.10;;;;;;;;;;5070806;28;20028;-38
2021/08/28 08:12:39;;;;;;;15.52;9.27;;;;;;;;;;5068329;28;20039;-37
2021/08/28 08:15:04;;;;;;;14.82;8.70;;;;;;;;;;5071670;28;20062;-37
2021/08/28 08:17:30;;;;;;;16.17;6.60;;;;;;;;;;5074180;28;20064;-38
2021/08/28 08:19:55;;;;;;;12.60;6.75;;;;;;;;;;5075863;28;20093;-38
2021/08/28 08:22:21;;;;;;;11.32;6.55;;;;;;;;;;5077773;28;20115;-38
2021/08/28 08:24:46;;;;;;;12.90;9.48;;;;;;;;;;5077618;28;20055;-38
2021/08/28 08:27:12;;;;;;;10.18;5.68;;;;;;;;;;5078817;28;20100;-38
2021/08/28 08:29:37;;;;;;;15.25;7.95;;;;;;;;;;5072081;28;20033;-37
2021/08/28 08:32:02;;;;;;;8.27;5.15;;;;;;;;;;5076068;28;20025;-38
2021/08/28 08:34:28;;;;;;;7.30;5.72;;;;;;;;;;5069195;28;20593;-38
2021/08/28 08:36:53;;;;;;;10.65;6.30;;;;;;;;;;5071552;28;20058;-37
2021/08/28 08:39:18;;;;;;;13.23;5.45;;;;;;;;;;5075059;28;20485;-38
2021/08/28 08:41:45;;;;;;;20.98;15.30;;;;;;;;;;5071814;28;20078;-38
2021/08/28 08:44:11;;;;;;;8.25;4.63;;;;;;;;;;5068276;28;20022;-37
2021/08/28 08:46:37;;;;;;;7.25;5.47;;;;;;;;;;5071689;28;20024;-38
2021/08/28 08:49:02;;;;;;;11.95;4.97;;;;;;;;;;5075747;28;20044;-38
2021/08/28 08:51:29;;;;;;;13.10;7.43;;;;;;;;;;5074478;28;20082;-38
2021/08/28 08:53:55;;;;;;;14.00;4.57;;;;;;;;;;5071979;28;20025;-38
2021/08/28 08:56:21;;;;;;;4.95;3.80;;;;;;;;;;5074392;28;20027;-37
2021/08/28 08:58:46;;;;;;;8.70;5.40;;;;;;;;;;5069505;28;20025;-38
2021/08/28 09:01:11;;;;;;;15.70;5.72;;;;;;;;;;5071867;28;20434;-38
2021/08/28 09:03:37;;;;;;;10.93;4.88;;;;;;;;;;5073770;28;20017;-39
2021/08/28 09:06:03;;;;;;;4.85;3.50;;;;;;;;;;5075324;28;20524;-40
2021/08/28 09:08:28;;;;;;;6.30;4.00;;;;;;;;;;5072038;28;20560;-45
2021/08/28 09:10:53;;;;;;;4.90;4.25;;;;;;;;;;5070931;28;20391;-45
2021/08/28 09:13:22;;;;;;;9.77;4.68;;;;;;;;;;5072036;28;20024;-45
2021/08/28 09:15:48;;;;;;;9.40;5.32;;;;;;;;;;5074897;28;20024;-45
2021/08/28 09:18:15;;;;;;;11.02;5.13;;;;;;;;;;5072434;28;20082;-44
2021/08/28 09:20:40;;;;;;;15.45;4.82;;;;;;;;;;5075199;28;20047;-45
2021/08/28 09:23:08;;;;;;;8.95;3.92;;;;;;;;;;5070385;28;20479;-38
2021/08/28 09:25:33;;;;;;;7.97;5.38;;;;;;;;;;5072620;28;20029;-37
2021/08/28 09:27:58;;;;;;;10.70;3.95;;;;;;;;;;5073906;28;20025;-40
2021/08/28 09:30:27;;;;;;;10.30;4.50;;;;;;;;;;5076480;28;20028;-44
2021/08/28 09:32:53;;;;;;;9.30;6.47;;;;;;;;;;5073171;28;20104;-45
2021/08/28 09:35:19;;;;;;;21.55;5.28;;;;;;;;;;5072745;28;20244;-45
2021/08/28 09:37:50;;;;;;;6.63;3.90;;;;;;;;;;5070744;28;20025;-45
2021/08/28 09:40:15;;;;;;;6.10;4.40;;;;;;;;;;5073303;28;20026;-45
2021/08/28 09:42:41;;;;;;;8.43;4.97;;;;;;;;;;5067378;28;20028;-45
2021/08/28 09:45:11;;;;;;;27.38;8.63;;;;;;;;;;5074316;28;20403;-45
2021/08/28 09:47:36;;;;;;;8.50;3.77;;;;;;;;;;5070127;28;20091;-45
2021/08/28 09:50:01;;;;;;;10.77;4.55;;;;;;;;;;5073512;28;20024;-45
2021/08/28 09:52:27;;;;;;;15.23;4.93;;;;;;;;;;5069907;28;20032;-45
2021/08/28 09:54:53;;;;;;;9.40;4.43;;;;;;;;;;5073165;28;20024;-45
2021/08/28 09:57:19;;;;;;;19.60;4.85;;;;;;;;;;5072024;28;20096;-45
2021/08/28 09:59:44;;;;;;;14.00;4.95;;;;;;;;;;5071414;28;20020;-45
2021/08/28 10:02:11;;;;;;;8.07;4.38;;;;;;;;;;5073628;28;20020;-45
2021/08/28 10:04:49;;;;;;;7.90;3.35;;;;;;;;;;5069808;28;20370;-45
2021/08/28 10:07:25;;;;;;;10.80;4.93;;;;;;;;;;5062491;28;20099;-45
2021/08/28 10:09:57;;;;;;;6.85;4.30;;;;;;;;;;5072831;28;20024;-45
2021/08/28 10:12:23;;;;;;;8.30;4.45;;;;;;;;;;5070516;28;20028;-45
2021/08/28 10:14:51;;;;;;;16.88;3.67;;;;;;;;;;5071697;28;20021;-45
2021/08/28 10:17:17;;;;;;;9.15;4.50;;;;;;;;;;5069524;28;20054;-44
2021/08/28 10:19:44;;;;;;;17.83;5.65;;;;;;;;;;5063520;28;20064;-47
2021/08/28 10:22:11;;;;;;;9.05;4.63;;;;;;;;;;5071859;28;20026;-44
2021/08/28 10:24:37;;;;;;;6.10;4.47;;;;;;;;;;5073862;28;20032;-40
2021/08/28 10:27:03;;;;;;;8.65;5.72;;;;;;;;;;5067551;28;20024;-38
2021/08/28 10:29:28;;;;;;;12.07;4.97;;;;;;;;;;5071713;28;20024;-37
2021/08/28 10:31:53;;;;;;;8.63;5.47;;;;;;;;;;5065933;28;20032;-37
2021/08/28 10:34:20;;;;;;;23.38;4.43;;;;;;;;;;5075790;28;20647;-39
2021/08/28 10:36:46;;;;;;;19.60;5.55;;;;;;;;;;5061940;28;20024;-37
2021/08/28 10:39:11;;;;;;;4.38;3.83;;;;;;;;;;5070620;28;20678;-38
2021/08/28 10:41:37;;;;;;;13.35;4.20;;;;;;;;;;5072399;28;20020;-38
2021/08/28 10:44:03;;;;;;;8.75;5.00;;;;;;;;;;5070457;28;20031;-38
2021/08/28 10:46:29;;;;;;;8.23;5.03;;;;;;;;;;5072033;28;20032;-41
2021/08/28 10:48:56;;;;;;;19.45;6.43;;;;;;;;;;5071827;28;20191;-44
2021/08/28 10:51:31;;;;;;;9.85;4.82;;;;;;;;;;5070143;28;20086;-40
2021/08/28 10:53:56;;;;;;;14.18;6.20;;;;;;;;;;5073494;28;20872;-36
2021/08/28 10:56:42;;;;;;;13.60;4.82;;;;;;;;;;5077606;28;20171;-38
2021/08/28 10:59:26;;;;;;;9.60;3.88;;;;;;;;;;5070911;28;20141;-38
2021/08/28 11:01:59;;;;;;;7.15;3.75;;;;;;;;;;5074890;28;20029;-40
2021/08/28 11:04:33;;;;;;;7.00;4.50;;;;;;;;;;5071786;28;20036;-35
2021/08/28 11:07:17;;;;;;;13.68;5.28;;;;;;;;;;5073636;28;20032;-34
2021/08/28 11:10:01;;;;;;;8.93;4.90;;;;;;;;;;5077201;28;20078;-34
2021/08/28 11:12:26;;;;;;;7.32;4.82;;;;;;;;;;5071337;28;20028;-32
2021/08/28 11:14:52;;;;;;;10.00;5.35;;;;;;;;;;5072729;28;20541;-35
2021/08/28 11:17:17;;;;;;;16.85;4.50;;;;;;;;;;5077784;28;20024;-36
2021/08/28 11:19:49;;;;;;;3.67;3.15;;;;;;;;;;5074556;28;20138;-35
2021/08/28 11:22:22;;;;;;;5.72;4.07;;;;;;;;;;5070711;28;20016;-35
2021/08/28 11:24:54;;;;;;;7.28;3.85;;;;;;;;;;5074353;28;20070;-36
2021/08/28 11:27:35;;;;;;;4.22;2.78;;;;;;;;;;5076969;28;20059;-35
2021/08/28 11:30:00;;;;;;;10.48;4.03;;;;;;;;;;5080760;28;20028;-35
2021/08/28 11:32:25;;;;;;;9.65;4.00;;;;;;;;;;5081386;28;20545;-35
2021/08/28 11:34:54;;;;;;;11.77;3.72;;;;;;;;;;5081160;28;20064;-35
2021/08/28 11:37:26;;;;;;;8.10;3.15;;;;;;;;;;5080860;28;20020;-35
2021/08/28 11:39:52;;;;;;;6.63;4.55;;;;;;;;;;5081133;28;20102;-35
2021/08/28 11:42:17;;;;;;;7.43;4.53;;;;;;;;;;5078213;28;20123;-36
2021/08/28 11:44:50;;;;;;;4.00;2.88;;;;;;;;;;5078503;28;20443;-35
2021/08/28 11:47:15;;;;;;;7.68;4.13;;;;;;;;;;5080744;28;20507;-35
2021/08/28 11:49:41;;;;;;;11.60;6.10;;;;;;;;;;5084955;28;20020;-35
2021/08/28 11:52:06;;;;;;;8.50;3.95;;;;;;;;;;5081215;28;20531;-36
2021/08/28 11:54:32;;;;;;;8.00;4.18;;;;;;;;;;5084791;28;20492;-35
2021/08/28 11:56:57;;;;;;;6.78;4.22;;;;;;;;;;5084221;28;20391;-35
2021/08/28 11:59:43;;;;;;;6.97;3.55;;;;;;;;;;5081179;28;20111;-35
2021/08/28 12:02:08;;;;;;;4.53;3.50;;;;;;;;;;5080427;28;20024;-35
2021/08/28 12:04:35;;;;;;;6.70;3.40;;;;;;;;;;5081024;28;20117;-35
2021/08/28 12:07:01;;;;;;;7.68;3.65;;;;;;;;;;5084060;28;20527;-35
2021/08/28 12:09:26;;;;;;;7.20;3.35;;;;;;;;;;5077599;28;20020;-35
2021/08/28 12:11:53;;;;;;;5.10;3.40;;;;;;;;;;5078749;28;20417;-36
2021/08/28 12:14:20;;;;;;;5.50;3.90;;;;;;;;;;5084045;28;20052;-36
2021/08/28 12:16:47;;;;;;;12.90;4.25;;;;;;;;;;5080676;28;20102;-35
2021/08/28 12:19:19;;;;;;;9.70;3.92;;;;;;;;;;5073950;28;20036;-37
2021/08/28 12:21:46;;;;;;;10.50;3.80;;;;;;;;;;5078414;28;20055;-35
2021/08/28 12:24:14;;;;;;;8.73;3.78;;;;;;;;;;5079083;28;20483;-35
2021/08/28 12:26:41;;;;;;;5.45;2.85;;;;;;;;;;5072070;28;20111;-36
2021/08/28 12:29:06;;;;;;;5.53;2.67;;;;;;;;;;5082289;28;20024;-36
2021/08/28 12:31:32;;;;;;;8.27;3.50;;;;;;;;;;5078634;28;20031;-37
2021/08/28 12:34:01;;;;;;;5.32;3.70;;;;;;;;;;5079712;28;20025;-38
2021/08/28 12:36:30;;;;;;;10.32;3.72;;;;;;;;;;5074710;28;20032;-38
2021/08/28 12:39:06;;;;;;;3.80;3.13;;;;;;;;;;5081556;28;20029;-36
2021/08/28 12:41:32;;;;;;;21.15;4.60;;;;;;;;;;5075782;28;20066;-37
2021/08/28 12:43:57;;;;;;;6.03;4.10;;;;;;;;;;5079852;28;20475;-36
2021/08/28 12:46:23;;;;;;;5.65;2.33;;;;;;;;;;5077776;28;20383;-37
2021/08/28 12:49:07;;;;;;;9.98;3.97;;;;;;;;;;5074447;28;20383;-36
2021/08/28 12:51:32;;;;;;;7.25;4.03;;;;;;;;;;5075360;28;20024;-36
2021/08/28 12:53:58;;;;;;;5.63;2.80;;;;;;;;;;5075548;28;20074;-36
2021/08/28 12:56:23;;;;;;;5.28;3.90;;;;;;;;;;5074591;28;20685;-36
2021/08/28 12:58:48;;;;;;;12.20;4.18;;;;;;;;;;5078618;28;20028;-36
2021/08/28 13:01:14;;;;;;;3.70;3.10;;;;;;;;;;5077222;28;20018;-34
2021/08/28 13:03:46;;;;;;;5.25;3.08;;;;;;;;;;5076296;28;20016;-36
2021/08/28 13:06:22;;;;;;;7.72;4.05;;;;;;;;;;5073936;28;20059;-36
2021/08/28 13:08:47;;;;;;;7.70;3.63;;;;;;;;;;5073342;28;20025;-35
2021/08/28 13:11:25;;;;;;;6.90;4.28;;;;;;;;;;5089783;28;20023;-36
2021/08/28 13:13:51;;;;;;;17.95;3.92;;;;;;;;;;5077418;28;20020;-36
2021/08/28 13:16:17;;;;;;;17.15;5.07;;;;;;;;;;5070166;28;20024;-36
2021/08/28 13:18:42;;;;;;;6.90;3.55;;;;;;;;;;5080645;28;20021;-36
2021/08/28 13:21:08;;;;;;;5.97;3.70;;;;;;;;;;5076481;28;20024;-36
2021/08/28 13:23:33;;;;;;;5.85;2.63;;;;;;;;;;5069918;28;20021;-36
2021/08/28 13:26:03;;;;;;;11.90;4.72;;;;;;;;;;5070710;28;20545;-36
2021/08/28 13:28:40;;;;;;;7.63;2.60;;;;;;;;;;5075737;28;20543;-36
2021/08/28 13:31:16;;;;;;;6.07;3.25;;;;;;;;;;5075632;28;20024;-36
2021/08/28 13:33:42;;;;;;;4.72;3.45;;;;;;;;;;5077637;28;20025;-36
2021/08/28 13:36:07;;;;;;;13.48;3.40;;;;;;;;;;5073000;28;20024;-36
2021/08/28 13:38:36;;;;;;;5.38;3.10;;;;;;;;;;5077029;28;20021;-36
2021/08/28 13:41:03;;;;;;;5.15;3.03;;;;;;;;;;5092265;28;20373;-36
2021/08/28 13:43:29;;;;;;;6.45;4.28;;;;;;;;;;5074550;28;20531;-36
2021/08/28 13:45:55;;;;;;;4.60;3.08;;;;;;;;;;5076574;28;20069;-36
2021/08/28 13:48:20;;;;;;;11.98;4.90;;;;;;;;;;5073827;28;20027;-36
2021/08/28 13:50:45;;;;;;;10.45;2.95;;;;;;;;;;5071948;28;20035;-36
2021/08/28 13:53:12;;;;;;;5.57;3.90;;;;;;;;;;5074638;28;20131;-36
2021/08/28 13:55:38;;;;;;;7.07;3.38;;;;;;;;;;5073773;28;20051;-36
2021/08/28 13:58:03;;;;;;;10.85;3.60;;;;;;;;;;5076234;28;20020;-36
2021/08/28 14:00:28;;;;;;;6.72;4.18;;;;;;;;;;5071427;28;20024;-36
2021/08/28 14:02:56;;;;;;;5.85;2.92;;;;;;;;;;5076546;28;20462;-36
2021/08/28 14:05:21;;;;;;;4.93;2.97;;;;;;;;;;5068112;28;20656;-36
2021/08/28 14:07:47;;;;;;;8.15;4.05;;;;;;;;;;5075862;28;20020;-38
2021/08/28 14:10:12;;;;;;;6.07;4.22;;;;;;;;;;5076133;28;20154;-41
2021/08/28 14:12:38;;;;;;;11.18;4.70;;;;;;;;;;5078968;28;20147;-38
2021/08/28 14:15:04;;;;;;;8.57;5.45;;;;;;;;;;5078691;28;20165;-37
2021/08/28 14:17:31;;;;;;;16.98;3.97;;;;;;;;;;5076619;28;20103;-38
2021/08/28 14:19:56;;;;;;;11.20;4.72;;;;;;;;;;5076229;28;20028;-37
2021/08/28 14:22:22;;;;;;;2.97;2.28;;;;;;;;;;5068974;28;20028;-38
2021/08/28 14:24:47;;;;;;;7.25;3.97;;;;;;;;;;5075666;28;20116;-38
2021/08/28 14:27:12;;;;;;;4.15;3.15;;;;;;;;;;5074555;28;20106;-38
2021/08/28 14:29:38;;;;;;;5.32;3.78;;;;;;;;;;5070925;28;20098;-38